Time;durP1;ratioP1;P1;durP2;ratioP2;P2;SDS_P1;SDS_P2;PMS_P1;PMS_P2;Temp;Humidity;BMP_temperature;BMP_pressure;BME280_temperature;BME280_humidity;BME280_pressure;Samples;Min_cycle;Max_cycle;Signal;HPM_P1;HPM_P2
2023/01/27 00:01:38;;;;;;;16.45;4.70;;;;;;;2.77;100.00;102261.16;6121877;23;20448;-86
2023/01/27 00:04:03;;;;;;;14.35;5.05;;;;;;;2.77;100.00;102250.63;6147609;23;20088;-86
2023/01/27 00:06:28;;;;;;;15.80;4.93;;;;;;;2.75;100.00;102252.34;6147783;23;20412;-86
2023/01/27 00:08:54;;;;;;;13.07;4.63;;;;;;;2.71;100.00;102250.59;6148214;23;20005;-86
2023/01/27 00:14:03;;;;;;;16.45;4.82;;;;;;;2.56;100.00;102246.16;6148260;23;20063;-86
2023/01/27 00:16:28;;;;;;;13.30;4.40;;;;;;;2.52;100.00;102254.03;6147204;23;20081;-86
2023/01/27 00:18:53;;;;;;;16.38;4.65;;;;;;;2.47;100.00;102257.50;6146264;23;20033;-86
2023/01/27 00:26:46;;;;;;;;;;;;;;;2.29;100.00;102253.88;6147966;23;20020;-87
2023/01/27 00:29:11;;;;;;;16.02;4.85;;;;;;;2.29;100.00;102251.25;6145492;23;20306;-86
2023/01/27 00:34:20;;;;;;;18.98;5.43;;;;;;;2.31;100.00;102253.03;6145640;23;20024;-86
2023/01/27 00:36:46;;;;;;;21.83;5.60;;;;;;;2.41;100.00;102249.56;6146181;23;20080;-86
2023/01/27 00:39:11;;;;;;;19.95;6.07;;;;;;;2.39;100.00;102246.09;6145110;23;20005;-86
2023/01/27 00:41:38;;;;;;;15.60;4.97;;;;;;;2.42;100.00;102243.44;6146111;23;20010;-86
2023/01/27 00:44:04;;;;;;;19.67;4.78;;;;;;;2.45;100.00;102245.22;6120072;23;20005;-86
2023/01/27 00:46:30;;;;;;;16.75;5.60;;;;;;;2.42;100.00;102243.44;6145764;23;20518;-87
2023/01/27 00:48:56;;;;;;;15.70;5.22;;;;;;;2.48;100.00;102255.75;6144528;23;20032;-86
2023/01/27 00:51:22;;;;;;;18.10;5.35;;;;;;;2.46;100.00;102250.47;6146055;23;20010;-86
2023/01/27 00:53:47;;;;;;;17.33;5.65;;;;;;;2.47;100.00;102262.78;6148027;23;20084;-87
2023/01/27 00:56:13;;;;;;;16.77;4.88;;;;;;;2.49;100.00;102258.38;6147443;23;20375;-86
2023/01/27 00:58:39;;;;;;;19.40;5.57;;;;;;;2.52;100.00;102256.66;6160633;23;19993;-86
2023/01/27 01:01:08;;;;;;;19.83;5.68;;;;;;;2.49;100.00;102261.00;6148798;23;19993;-86
2023/01/27 01:03:35;;;;;;;15.77;5.13;;;;;;;2.50;100.00;102260.13;6149835;23;20055;-86
2023/01/27 01:06:04;;;;;;;16.73;5.22;;;;;;;2.43;100.00;102257.50;6176424;23;19997;-86
2023/01/27 01:08:31;;;;;;;17.17;5.53;;;;;;;2.49;100.00;102265.41;6174131;23;20004;-86
2023/01/27 01:10:56;;;;;;;13.82;5.53;;;;;;;2.47;100.00;102265.41;6175583;23;20313;-86
2023/01/27 01:13:21;;;;;;;17.17;5.53;;;;;;;2.49;100.00;102265.41;6177675;23;20029;-86
2023/01/27 01:15:47;;;;;;;15.65;4.90;;;;;;;2.48;100.00;102268.91;6178986;23;20024;-86
2023/01/27 01:18:12;;;;;;;12.60;5.07;;;;;;;2.48;100.00;102275.03;6179195;23;19994;-86
2023/01/27 01:20:41;;;;;;;16.27;5.32;;;;;;;2.47;100.00;102260.13;6178686;23;20040;-86
2023/01/27 01:23:07;;;;;;;20.42;5.35;;;;;;;2.45;100.00;102272.38;6177864;23;20020;-87
2023/01/27 01:25:33;;;;;;;14.82;5.30;;;;;;;2.42;100.00;102267.09;6154440;23;20086;-87
2023/01/27 01:27:59;;;;;;;14.82;5.93;;;;;;;2.38;100.00;102254.84;6151359;23;20009;-87
2023/01/27 01:30:26;;;;;;;16.30;5.90;;;;;;;2.35;100.00;102265.31;6150686;23;20002;-86
2023/01/27 01:32:52;;;;;;;14.90;5.50;;;;;;;2.41;100.00;102272.34;6150397;23;20416;-86
2023/01/27 01:35:18;;;;;;;13.20;5.93;;;;;;;2.41;100.00;102281.13;6140663;23;20001;-85
2023/01/27 01:37:43;;;;;;;16.05;6.00;;;;;;;2.38;100.00;102278.50;6180051;23;19998;-84
2023/01/27 01:40:11;;;;;;;11.55;6.22;;;;;;;2.38;100.00;102282.84;6180675;23;20009;-85
2023/01/27 01:42:51;;;;;;;11.25;5.45;;;;;;;2.38;100.00;102286.38;6179168;23;20036;-85
2023/01/27 01:45:32;;;;;;;13.95;5.95;;;;;;;2.38;100.00;102291.63;6150167;23;19994;-86
2023/01/27 01:48:12;;;;;;;13.63;6.05;;;;;;;2.35;100.00;102290.72;6175057;23;20006;-86
2023/01/27 01:50:40;;;;;;;16.40;6.10;;;;;;;2.34;100.00;102287.22;6153379;23;20010;-86
2023/01/27 01:53:09;;;;;;;14.13;6.25;;;;;;;2.32;100.00;102282.81;6153752;23;20005;-85
2023/01/27 01:55:36;;;;;;;13.65;6.47;;;;;;;2.29;100.00;102280.16;6154424;23;20006;-86
2023/01/27 01:58:03;;;;;;;15.18;6.40;;;;;;;2.31;100.00;102283.69;6152802;23;20022;-86
2023/01/27 02:00:29;;;;;;;17.02;6.70;;;;;;;2.29;100.00;102278.41;6151285;23;20029;-86
2023/01/27 02:02:55;;;;;;;12.35;6.25;;;;;;;2.30;100.00;102292.41;6151585;23;20084;-86
2023/01/27 02:05:26;;;;;;;12.65;6.80;;;;;;;2.28;100.00;102284.53;6151664;23;20037;-85
2023/01/27 02:08:32;;;;;;;13.82;6.93;;;;;;;2.28;100.00;102284.53;6150864;23;20005;-86
2023/01/27 02:10:58;;;;;;;12.68;6.55;;;;;;;2.25;100.00;102276.63;6150222;23;20005;-86
2023/01/27 02:13:23;;;;;;;12.23;6.78;;;;;;;2.25;100.00;102269.63;6148202;23;20020;-85
2023/01/27 02:15:52;;;;;;;13.18;7.30;;;;;;;2.23;100.00;102281.00;6147551;23;20002;-85
2023/01/27 02:18:17;;;;;;;14.57;7.78;;;;;;;2.24;100.00;102286.25;6148120;23;20027;-86
2023/01/27 02:20:52;;;;;;;14.63;7.32;;;;;;;2.23;100.00;102284.50;6149110;23;20424;-86
2023/01/27 02:23:35;;;;;;;18.80;6.85;;;;;;;2.24;100.00;102303.78;6149287;23;20006;-86
2023/01/27 02:26:16;;;;;;;13.55;7.38;;;;;;;2.20;100.00;102292.38;6148310;23;20016;-85
2023/01/27 02:28:42;;;;;;;14.32;7.05;;;;;;;2.19;100.00;102295.00;6147853;23;20016;-86
2023/01/27 02:31:07;;;;;;;15.20;7.43;;;;;;;2.20;100.00;102297.63;6147739;23;20006;-86
2023/01/27 02:33:33;;;;;;;17.77;7.22;;;;;;;2.21;100.00;102298.50;6147970;23;20008;-86
2023/01/27 02:36:16;;;;;;;15.07;6.97;;;;;;;2.20;100.00;102304.63;6147713;23;20420;-86
2023/01/27 02:38:52;;;;;;;13.70;7.22;;;;;;;2.18;100.00;102301.13;6147709;23;20021;-85
2023/01/27 02:41:31;;;;;;;16.98;7.43;;;;;;;2.17;100.00;102292.38;6147229;23;20077;-86
2023/01/27 02:43:56;;;;;;;12.10;6.95;;;;;;;2.18;100.00;102304.63;6146376;23;20013;-86
2023/01/27 02:46:22;;;;;;;15.20;7.72;;;;;;;2.14;100.00;102294.97;6147001;23;20035;-86
2023/01/27 02:48:48;;;;;;;16.88;8.48;;;;;;;2.19;100.00;102310.75;6148012;23;20005;-86
2023/01/27 02:51:13;;;;;;;12.68;7.15;;;;;;;2.19;100.00;102308.13;6147201;23;20376;-86
2023/01/27 02:53:38;;;;;;;12.73;7.68;;;;;;;2.17;100.00;102302.88;6147103;23;20009;-86
2023/01/27 02:56:04;;;;;;;15.77;8.20;;;;;;;2.16;100.00;102303.72;6147038;23;20011;-86
2023/01/27 02:58:30;;;;;;;13.65;7.82;;;;;;;2.15;100.00;102303.72;6147034;23;20008;-86
2023/01/27 03:00:55;;;;;;;12.73;7.75;;;;;;;2.16;100.00;102308.09;6146605;23;20012;-86
2023/01/27 03:03:20;;;;;;;14.10;7.75;;;;;;;2.15;100.00;102307.22;6146561;23;20593;-86
2023/01/27 03:05:46;;;;;;;12.32;7.88;;;;;;;2.18;100.00;102304.63;6146079;23;20012;-86
2023/01/27 03:08:11;;;;;;;11.77;7.68;;;;;;;2.21;100.00;102309.00;6146431;23;20085;-86
2023/01/27 03:10:37;;;;;;;14.52;8.10;;;;;;;2.18;100.00;102304.63;6146405;23;20499;-86
2023/01/27 03:13:02;;;;;;;12.23;8.70;;;;;;;2.15;100.00;102299.34;6146549;23;20017;-85
2023/01/27 03:18:12;;;;;;;12.95;8.38;;;;;;;2.18;100.00;102314.25;6144117;23;20154;-85
2023/01/27 03:20:46;;;;;;;14.35;8.13;;;;;;;2.20;100.00;102316.00;6144599;23;20025;-86
2023/01/27 03:23:13;;;;;;;13.32;8.38;;;;;;;2.19;100.00;102310.75;6145953;23;20009;-86
2023/01/27 03:25:43;;;;;;;14.32;8.57;;;;;;;2.19;100.00;102305.50;6172280;23;20013;-86
2023/01/27 03:28:09;;;;;;;15.95;7.90;;;;;;;2.17;100.00;102312.47;6173727;23;19994;-85
2023/01/27 03:30:35;;;;;;;13.55;8.13;;;;;;;2.13;100.00;102306.34;6175439;23;20046;-86
2023/01/27 03:33:02;;;;;;;18.67;8.70;;;;;;;2.12;100.00;102308.94;6172908;23;20070;-86
2023/01/27 03:35:32;;;;;;;18.17;9.40;;;;;;;2.14;100.00;102313.34;6173366;23;20005;-86
2023/01/27 03:46:19;;;;;;;;;;;;;;;2.18;100.00;102330.03;6156669;23;20012;-86
2023/01/27 03:48:53;;;;;;;17.10;9.73;;;;;;;2.16;100.00;102337.00;6179072;23;19900;-86
2023/01/27 03:51:21;;;;;;;17.25;11.27;;;;;;;2.16;100.00;102332.63;6177390;23;20005;-85
2023/01/27 03:53:47;;;;;;;19.08;11.13;;;;;;;2.14;100.00;102344.00;6177111;23;20008;-86
2023/01/27 03:56:14;;;;;;;15.00;10.80;;;;;;;2.11;100.00;102325.56;6173854;23;19989;-86
2023/01/27 03:58:39;;;;;;;18.73;11.02;;;;;;;2.12;100.00;102345.72;6174985;23;19998;-86
2023/01/27 04:01:23;;;;;;;18.33;11.27;;;;;;;2.09;100.00;102341.34;6157710;23;20020;-86
2023/01/27 04:06:50;;;;;;;18.35;12.48;;;;;;;2.13;100.00;102350.09;6152396;23;19912;-86
2023/01/27 04:09:22;;;;;;;21.07;12.53;;;;;;;2.10;100.00;102344.84;6152280;23;20092;-86
2023/01/27 04:11:59;;;;;;;21.45;14.48;;;;;;;2.11;100.00;102338.72;6151017;23;20237;-85
2023/01/27 04:14:30;;;;;;;24.13;12.70;;;;;;;2.12;100.00;102348.34;6149790;23;20337;-86
2023/01/27 04:16:59;;;;;;;22.10;13.98;;;;;;;2.08;100.00;102347.44;6148747;23;20005;-85
2023/01/27 04:19:25;;;;;;;21.33;13.25;;;;;;;2.10;100.00;102355.34;6148865;23;20570;-86
2023/01/27 04:21:51;;;;;;;18.58;13.32;;;;;;;2.06;100.00;102343.06;6148115;23;20001;-86
2023/01/27 04:24:21;;;;;;;20.95;13.10;;;;;;;2.10;100.00;102350.97;6147901;23;20005;-86
2023/01/27 04:26:50;;;;;;;21.77;13.77;;;;;;;2.10;100.00;102352.72;6148643;23;20024;-85
2023/01/27 04:29:16;;;;;;;22.48;13.80;;;;;;;2.05;100.00;102350.06;6146541;23;20006;-86
2023/01/27 04:31:42;;;;;;;24.15;14.52;;;;;;;2.06;100.00;102350.94;6147450;23;20020;-86
2023/01/27 04:34:09;;;;;;;20.88;13.95;;;;;;;2.02;100.00;102343.91;6147811;23;20379;-86
2023/01/27 04:36:34;;;;;;;23.02;14.13;;;;;;;1.99;100.00;102348.25;6173246;23;20014;-86
2023/01/27 04:39:00;;;;;;;22.55;14.65;;;;;;;1.99;100.00;102360.50;6174902;23;20009;-86
2023/01/27 04:41:26;;;;;;;25.13;15.30;;;;;;;2.00;100.00;102350.00;6175635;23;20041;-85
2023/01/27 04:43:52;;;;;;;23.63;15.93;;;;;;;1.98;100.00;102346.50;6176009;23;20068;-86
2023/01/27 04:46:17;;;;;;;23.13;16.10;;;;;;;1.94;100.00;102357.84;6157713;23;20088;-85
2023/01/27 04:48:42;;;;;;;24.45;15.48;;;;;;;1.98;100.00;102364.00;6153295;23;20005;-85
2023/01/27 04:51:08;;;;;;;22.10;15.27;;;;;;;1.94;100.00;102351.69;6151321;23;20458;-86
2023/01/27 04:53:33;;;;;;;24.92;15.50;;;;;;;1.92;100.00;102358.66;6148476;23;20441;-86
2023/01/27 04:56:05;;;;;;;22.25;15.75;;;;;;;1.93;100.00;102360.47;6149888;23;20016;-85
2023/01/27 04:58:30;;;;;;;19.83;14.60;;;;;;;1.91;100.00;102364.78;6125120;23;20083;-86
2023/01/27 05:00:55;;;;;;;23.75;15.10;;;;;;;1.90;100.00;102379.69;6150020;23;20006;-85
2023/01/27 05:03:21;;;;;;;19.33;15.07;;;;;;;1.88;100.00;102370.00;6150053;23;20530;-86
2023/01/27 05:05:46;;;;;;;24.40;15.70;;;;;;;1.87;100.00;102374.38;6150347;23;20001;-85
2023/01/27 05:08:11;;;;;;;24.60;14.88;;;;;;;1.87;100.00;102376.13;6149640;23;20424;-85
2023/01/27 05:10:37;;;;;;;22.05;15.05;;;;;;;1.88;100.00;102381.41;6123153;23;20395;-84
2023/01/27 05:13:02;;;;;;;33.53;14.82;;;;;;;1.82;100.00;102365.59;6149700;23;20093;-85
2023/01/27 05:15:29;;;;;;;21.58;14.45;;;;;;;1.88;100.00;102391.00;6148917;23;20036;-86
2023/01/27 05:17:54;;;;;;;24.50;15.30;;;;;;;1.85;100.00;102381.38;6149137;23;20010;-85
2023/01/27 05:20:20;;;;;;;20.52;14.70;;;;;;;1.80;100.00;102375.22;6148772;23;20719;-85
2023/01/27 05:22:45;;;;;;;23.30;15.15;;;;;;;1.85;100.00;102384.00;6148366;23;20420;-85
2023/01/27 05:25:11;;;;;;;20.77;14.77;;;;;;;1.85;100.00;102391.88;6143708;23;20061;-85
2023/01/27 05:27:36;;;;;;;20.20;14.63;;;;;;;1.85;100.00;102394.50;6150352;23;20010;-85
2023/01/27 05:30:02;;;;;;;20.65;14.40;;;;;;;1.85;100.00;102399.75;6155708;23;19998;-85
2023/01/27 05:32:27;;;;;;;20.77;15.23;;;;;;;1.81;100.00;102386.59;6158336;23;20012;-85
2023/01/27 05:34:52;;;;;;;25.83;16.17;;;;;;;1.81;100.00;102395.34;6156004;23;20008;-85
2023/01/27 05:37:18;;;;;;;23.35;16.25;;;;;;;1.84;100.00;102398.00;6130435;23;20029;-85
2023/01/27 05:39:43;;;;;;;23.55;15.18;;;;;;;1.84;100.00;102399.72;6132718;23;20017;-86
2023/01/27 05:42:08;;;;;;;22.98;15.07;;;;;;;1.82;100.00;102399.72;6161550;23;20062;-85
2023/01/27 05:44:34;;;;;;;21.80;15.45;;;;;;;1.84;100.00;102402.34;6161079;23;20005;-85
2023/01/27 05:47:00;;;;;;;19.25;14.98;;;;;;;1.77;100.00;102385.69;6172035;23;20010;-85
2023/01/27 05:49:25;;;;;;;22.33;15.80;;;;;;;1.82;100.00;102406.72;6178142;23;20001;-85
2023/01/27 05:51:50;;;;;;;21.02;14.05;;;;;;;1.82;100.00;102409.34;6178349;23;20012;-85
2023/01/27 05:54:16;;;;;;;21.15;14.80;;;;;;;1.76;100.00;102404.94;6176623;23;20060;-84
2023/01/27 05:56:41;;;;;;;21.58;15.10;;;;;;;1.80;100.00;102411.97;6178709;23;20018;-85
2023/01/27 05:59:08;;;;;;;18.77;14.25;;;;;;;1.80;100.00;102422.47;6179355;23;20004;-86
2023/01/27 06:01:34;;;;;;;19.50;14.98;;;;;;;1.72;100.00;102408.38;6179688;23;20013;-86
2023/01/27 06:03:59;;;;;;;20.83;15.00;;;;;;;1.73;100.00;102408.38;6178567;23;20009;-86
2023/01/27 06:06:26;;;;;;;24.48;15.55;;;;;;;1.75;100.00;102414.53;6175995;23;20061;-86
2023/01/27 06:08:52;;;;;;;19.23;14.43;;;;;;;1.75;100.00;102408.38;6144472;23;20005;-86
2023/01/27 06:11:19;;;;;;;20.10;15.07;;;;;;;1.74;100.00;102410.13;6161378;23;20064;-86
2023/01/27 06:13:45;;;;;;;21.75;15.05;;;;;;;1.74;100.00;102401.38;6161142;23;20097;-83
2023/01/27 06:16:14;;;;;;;21.70;15.32;;;;;;;1.73;100.00;102405.75;6160733;23;20005;-85
2023/01/27 06:18:39;;;;;;;21.48;15.15;;;;;;;1.67;100.00;102399.56;6132871;23;20084;-86
2023/01/27 06:21:09;;;;;;;19.83;14.95;;;;;;;1.74;100.00;102419.75;6159076;23;20013;-86
2023/01/27 06:23:34;;;;;;;20.10;15.13;;;;;;;1.69;100.00;102400.47;6160923;23;20028;-85
2023/01/27 06:26:02;;;;;;;21.20;15.10;;;;;;;1.76;100.00;102415.44;6162800;23;20005;-87
2023/01/27 06:28:28;;;;;;;18.85;14.50;;;;;;;1.74;100.00;102412.75;6161597;23;20016;-85
2023/01/27 06:30:53;;;;;;;19.20;14.75;;;;;;;1.78;100.00;102411.06;6160399;23;20080;-86
2023/01/27 06:33:19;;;;;;;20.50;14.95;;;;;;;1.80;100.00;102411.06;6155828;23;20012;-86
2023/01/27 06:35:44;;;;;;;16.70;13.98;;;;;;;1.83;100.00;102422.47;6148458;23;20097;-86
2023/01/27 06:38:13;;;;;;;17.83;13.82;;;;;;;1.84;100.00;102421.63;6148607;23;20195;-86
2023/01/27 06:40:38;;;;;;;18.08;14.70;;;;;;;1.86;100.00;102425.16;6148943;23;20068;-87
2023/01/27 06:43:04;;;;;;;17.90;14.60;;;;;;;1.84;100.00;102412.84;6149582;23;20080;-86
2023/01/27 06:45:29;;;;;;;17.95;14.25;;;;;;;1.87;100.00;102423.41;6148103;23;20006;-86
2023/01/27 06:47:59;;;;;;;17.45;14.35;;;;;;;1.92;100.00;102426.94;6147540;23;20015;-86
2023/01/27 06:50:28;;;;;;;20.27;14.93;;;;;;;1.89;100.00;102429.56;6121127;23;20029;-86
2023/01/27 06:53:02;;;;;;;17.05;14.77;;;;;;;1.92;100.00;102430.47;6148592;23;20013;-86
2023/01/27 06:55:27;;;;;;;16.70;13.63;;;;;;;1.91;100.00;102428.69;6148723;23;20363;-86
2023/01/27 06:57:53;;;;;;;15.90;13.57;;;;;;;1.91;100.00;102414.69;6147831;23;20360;-86
2023/01/27 07:00:18;;;;;;;19.00;14.93;;;;;;;1.92;100.00;102422.59;6146871;23;20044;-86
2023/01/27 07:02:44;;;;;;;19.90;15.15;;;;;;;1.92;100.00;102422.59;6147714;23;20085;-86
2023/01/27 07:05:10;;;;;;;17.77;14.57;;;;;;;1.93;100.00;102429.59;6145203;23;20016;-86
2023/01/27 07:07:36;;;;;;;16.98;13.95;;;;;;;1.92;100.00;102427.84;6148479;23;20008;-87
2023/01/27 07:10:02;;;;;;;17.08;14.23;;;;;;;1.90;100.00;102424.31;6147901;23;20010;-86
2023/01/27 07:12:28;;;;;;;17.15;14.00;;;;;;;1.92;100.00;102443.59;6150630;23;20577;-86
2023/01/27 07:14:53;;;;;;;18.67;14.10;;;;;;;1.94;100.00;102444.50;6144757;23;20013;-86
2023/01/27 07:17:19;;;;;;;17.30;14.00;;;;;;;1.94;100.00;102438.34;6120121;23;20016;-86
2023/01/27 07:19:44;;;;;;;20.63;15.85;;;;;;;1.95;100.00;102443.63;6146634;23;20049;-86
2023/01/27 07:22:09;;;;;;;16.17;13.82;;;;;;;1.97;100.00;102448.91;6147545;23;20012;-87
2023/01/27 07:24:34;;;;;;;18.30;13.77;;;;;;;1.99;100.00;102453.28;6146040;23;20453;-87
2023/01/27 07:27:00;;;;;;;16.83;14.15;;;;;;;1.99;100.00;102453.28;6147945;23;20435;-86
2023/01/27 07:29:26;;;;;;;15.00;13.13;;;;;;;1.97;100.00;102443.66;6121784;23;20022;-87
2023/01/27 07:31:51;;;;;;;15.95;13.82;;;;;;;1.99;100.00;102452.41;6148139;23;20009;-86
2023/01/27 07:34:17;;;;;;;16.20;13.82;;;;;;;2.03;100.00;102455.94;6146614;23;20009;-86
2023/01/27 07:36:42;;;;;;;14.95;13.23;;;;;;;2.02;100.00;102438.44;6148260;23;20028;-86
2023/01/27 07:39:07;;;;;;;15.98;13.25;;;;;;;1.96;100.00;102429.63;6146410;23;20435;-87
2023/01/27 07:41:33;;;;;;;14.27;12.30;;;;;;;2.02;100.00;102443.69;6147869;23;20080;-87
2023/01/27 07:43:58;;;;;;;12.82;11.52;;;;;;;2.07;100.00;102453.38;6166694;23;20099;-87
2023/01/27 07:46:23;;;;;;;13.10;11.70;;;;;;;2.08;100.00;102454.25;6147524;23;20232;-87
2023/01/27 07:48:49;;;;;;;14.60;11.63;;;;;;;2.08;100.00;102460.38;6174388;23;19998;-87
2023/01/27 07:51:14;;;;;;;13.35;11.50;;;;;;;2.11;100.00;102462.16;6171454;23;20041;-86
2023/01/27 07:53:40;;;;;;;13.18;11.77;;;;;;;2.12;100.00;102462.16;6174604;23;20001;-86
2023/01/27 07:56:10;;;;;;;13.13;10.88;;;;;;;2.15;100.00;102471.84;6175363;23;20025;-86
2023/01/27 07:58:40;;;;;;;13.98;10.93;;;;;;;2.16;100.00;102468.34;6176980;23;20134;-86
2023/01/27 08:01:07;;;;;;;10.80;9.70;;;;;;;2.17;100.00;102471.00;6151664;23;20080;-85
2023/01/27 08:03:33;;;;;;;10.85;9.73;;;;;;;2.16;100.00;102471.84;6176665;23;19990;-81
2023/01/27 08:05:58;;;;;;;12.13;10.90;;;;;;;2.15;100.00;102466.59;6175901;23;20009;-87
2023/01/27 08:08:23;;;;;;;12.35;10.30;;;;;;;2.18;100.00;102470.13;6175677;23;20041;-87
2023/01/27 08:10:50;;;;;;;11.25;9.75;;;;;;;2.23;100.00;102478.94;6166645;23;20088;-87
2023/01/27 08:13:15;;;;;;;10.43;9.32;;;;;;;2.23;100.00;102475.41;6151696;23;20080;-88
2023/01/27 08:15:41;;;;;;;10.60;9.57;;;;;;;2.23;100.00;102476.28;6151664;23;20420;-88
2023/01/27 08:18:06;;;;;;;11.13;9.57;;;;;;;2.21;100.00;102477.13;6151700;23;20416;-88
2023/01/27 08:20:31;;;;;;;10.35;9.13;;;;;;;2.25;100.00;102478.94;6150445;23;20027;-89
2023/01/27 08:22:57;;;;;;;10.85;9.75;;;;;;;2.30;100.00;102476.34;6150055;23;20431;-84
2023/01/27 08:25:22;;;;;;;10.20;9.20;;;;;;;2.22;100.00;102460.53;6148728;23;20001;-85
2023/01/27 08:27:49;;;;;;;10.35;9.25;;;;;;;2.31;100.00;102478.13;6148223;23;20103;-85
2023/01/27 08:30:15;;;;;;;10.25;9.25;;;;;;;2.27;100.00;102466.69;6147749;23;20001;-86
2023/01/27 08:32:40;;;;;;;9.93;8.90;;;;;;;2.36;100.00;102479.91;6147958;23;20088;-85
2023/01/27 08:35:06;;;;;;;10.00;8.93;;;;;;;2.38;100.00;102482.56;6147368;23;20383;-85
2023/01/27 08:37:31;;;;;;;10.05;9.05;;;;;;;2.33;100.00;102473.75;6148397;23;20015;-86
2023/01/27 08:39:57;;;;;;;9.52;8.38;;;;;;;2.39;100.00;102486.97;6147189;23;20025;-87
2023/01/27 08:42:22;;;;;;;10.00;9.00;;;;;;;2.40;100.00;102484.34;6147333;23;20005;-87
2023/01/27 08:44:47;;;;;;;9.30;8.30;;;;;;;2.44;100.00;102485.25;6146499;23;20384;-84
2023/01/27 08:47:13;;;;;;;9.50;8.57;;;;;;;2.44;100.00;102485.25;6147877;23;20005;-86
2023/01/27 08:49:38;;;;;;;8.98;8.10;;;;;;;2.44;100.00;102486.13;6157765;23;20012;-86
2023/01/27 08:52:03;;;;;;;9.77;8.65;;;;;;;2.45;100.00;102487.88;6158499;23;20090;-86
2023/01/27 08:54:29;;;;;;;10.15;9.15;;;;;;;2.45;100.00;102485.25;6156584;23;20403;-85
2023/01/27 08:56:54;;;;;;;9.02;8.23;;;;;;;2.48;100.00;102495.81;6157764;23;20076;-86
2023/01/27 08:59:19;;;;;;;9.43;8.52;;;;;;;2.48;100.00;102494.94;6158390;23;20005;-86
2023/01/27 09:01:44;;;;;;;8.85;8.05;;;;;;;2.47;100.00;102499.31;6157699;23;20317;-86
2023/01/27 09:04:10;;;;;;;9.30;8.40;;;;;;;2.50;100.00;102501.94;6156776;23;20010;-84
2023/01/27 09:06:35;;;;;;;8.57;7.70;;;;;;;2.57;100.00;102497.63;6156391;23;20010;-84
2023/01/27 09:09:10;;;;;;;9.10;8.30;;;;;;;2.60;100.00;102508.19;6130239;23;20016;-84
2023/01/27 09:11:36;;;;;;;8.68;7.80;;;;;;;2.62;100.00;102514.31;6130567;23;20025;-85
2023/01/27 09:14:02;;;;;;;9.13;8.20;;;;;;;2.65;100.00;102511.72;6155144;23;20184;-85
2023/01/27 09:16:27;;;;;;;8.88;7.60;;;;;;;2.66;100.00;102507.34;6155126;23;20012;-85
2023/01/27 09:18:53;;;;;;;8.43;7.45;;;;;;;2.66;100.00;102515.22;6154999;23;20005;-86
2023/01/27 09:21:18;;;;;;;7.95;7.15;;;;;;;2.64;100.00;102509.09;6154372;23;20674;-85
2023/01/27 09:23:47;;;;;;;8.57;7.78;;;;;;;2.70;100.00;102525.78;6154454;23;20013;-85
2023/01/27 09:26:13;;;;;;;8.25;7.55;;;;;;;2.68;100.00;102517.00;6155882;23;20009;-86
2023/01/27 09:28:38;;;;;;;8.60;7.80;;;;;;;2.75;100.00;102523.19;6154092;23;20009;-85
2023/01/27 09:31:04;;;;;;;8.30;7.50;;;;;;;2.78;100.00;102530.22;6155532;23;20005;-86
2023/01/27 09:33:29;;;;;;;8.18;7.43;;;;;;;2.76;100.00;102524.97;6157445;23;20748;-85
2023/01/27 09:36:13;;;;;;;7.82;7.13;;;;;;;2.83;100.00;102532.00;6157233;23;20100;-86
2023/01/27 09:38:42;;;;;;;;;;;;;;;2.91;100.00;102526.81;6158194;23;20005;-86
2023/01/27 09:41:33;;;;;;;8.57;7.78;;;;;;;2.91;100.00;102537.34;6129878;23;19909;-85
2023/01/27 09:44:35;;;;;;;9.15;7.60;;;;;;;2.92;100.00;102536.47;6156313;23;20010;-86
2023/01/27 09:47:22;;;;;;;8.10;7.30;;;;;;;2.96;100.00;102533.88;6157075;23;20008;-84
2023/01/27 09:50:06;;;;;;;8.80;8.00;;;;;;;3.03;100.00;102533.94;6134027;23;20364;-85
2023/01/27 09:52:54;;;;;;;8.00;7.20;;;;;;;3.04;100.00;102531.28;6168235;23;20091;-85
2023/01/27 09:55:31;;;;;;;8.23;7.38;;;;;;;3.07;100.00;102536.59;6152025;23;20005;-84
2023/01/27 09:58:19;;;;;;;8.05;7.25;;;;;;;3.09;100.00;102545.34;6177797;23;20053;-84
2023/01/27 10:00:52;;;;;;;7.95;7.20;;;;;;;3.11;100.00;102543.63;6179608;23;19998;-84
2023/01/27 10:03:17;;;;;;;7.82;7.13;;;;;;;3.14;100.00;102534.91;6179167;23;19997;-83
2023/01/27 10:06:18;;;;;;;8.20;7.38;;;;;;;3.16;100.00;102535.78;6178642;23;20013;-84
2023/01/27 10:09:07;;;;;;;7.32;6.72;;;;;;;3.22;100.00;102539.34;6176602;23;20025;-85
2023/01/27 10:11:54;;;;;;;7.18;6.53;;;;;;;3.24;100.00;102539.34;6169754;23;20005;-84
2023/01/27 10:14:51;;;;;;;8.25;7.38;;;;;;;3.31;100.00;102535.00;6133212;23;20009;-83
2023/01/27 10:17:23;;;;;;;7.72;6.90;;;;;;;3.42;100.00;102543.81;6113439;23;20160;-83
2023/01/27 10:20:12;;;;;;;7.80;7.10;;;;;;;3.58;100.00;102534.28;6158049;23;20018;-84
2023/01/27 10:22:55;;;;;;;7.47;6.78;;;;;;;3.58;100.00;102543.03;6157390;23;20560;-84
2023/01/27 10:25:54;;;;;;;7.28;6.65;;;;;;;3.53;99.72;102539.50;6157866;23;20009;-85
2023/01/27 10:28:22;;;;;;;7.22;6.63;;;;;;;3.36;99.44;102542.06;6157939;23;20006;-84
2023/01/27 10:30:59;;;;;;;7.95;7.25;;;;;;;3.33;100.00;102543.78;6157713;23;20004;-83
2023/01/27 10:33:54;;;;;;;7.18;6.57;;;;;;;3.33;100.00;102535.88;6158674;23;20014;-84
2023/01/27 10:36:36;;;;;;;8.68;7.50;;;;;;;3.32;100.00;102542.91;6158399;23;20424;-83
2023/01/27 10:39:26;;;;;;;8.18;7.47;;;;;;;3.31;100.00;102540.28;6158026;23;20024;-83
2023/01/27 10:42:21;;;;;;;8.27;7.40;;;;;;;3.31;100.00;102537.63;6131564;23;20009;-83
2023/01/27 10:45:17;;;;;;;8.15;7.30;;;;;;;3.25;100.00;102534.06;6159116;23;20057;-83
2023/01/27 10:48:03;;;;;;;8.00;7.20;;;;;;;3.24;100.00;102541.97;6173099;23;20313;-84
2023/01/27 10:50:36;;;;;;;7.45;6.75;;;;;;;3.19;99.94;102535.81;6151261;23;20048;-83
2023/01/27 10:53:51;;;;;;;8.10;7.38;;;;;;;3.23;100.00;102527.06;6173611;23;20028;-84
2023/01/27 10:57:07;;;;;;;8.05;6.85;;;;;;;3.30;100.00;102527.97;6153999;23;20014;-83
2023/01/27 11:00:05;;;;;;;8.35;7.53;;;;;;;3.29;100.00;102532.34;6063432;23;20013;-84
2023/01/27 11:02:39;;;;;;;8.07;7.20;;;;;;;3.22;100.00;102522.69;6062537;23;20051;-84
2023/01/27 11:05:10;;;;;;;7.97;7.18;;;;;;;3.32;100.00;102531.50;6064226;23;20014;-83
2023/01/27 11:07:47;;;;;;;8.48;7.60;;;;;;;3.35;100.00;102527.13;6064718;23;20021;-84
2023/01/27 11:10:20;;;;;;;8.52;7.80;;;;;;;3.38;100.00;102526.25;6063544;23;20007;-82
2023/01/27 11:12:48;;;;;;;8.40;7.50;;;;;;;3.41;100.00;102526.28;6039556;23;20428;-84
2023/01/27 11:15:30;;;;;;;7.43;6.72;;;;;;;3.47;100.00;102523.69;6058529;23;20014;-84
2023/01/27 11:18:14;;;;;;;7.80;7.10;;;;;;;3.27;100.00;102505.16;6056549;23;20033;-84
2023/01/27 11:20:52;;;;;;;7.65;6.95;;;;;;;3.42;98.87;102521.00;6056930;23;20029;-84
2023/01/27 11:23:26;;;;;;;8.13;7.43;;;;;;;3.45;99.42;102520.16;6056083;23;20047;-84
2023/01/27 11:25:59;;;;;;;;;;;;;;;3.64;100.00;102518.53;6057190;23;20014;-84
2023/01/27 11:29:03;;;;;;;8.00;7.22;;;;;;;3.68;99.30;102518.53;6054992;23;20000;-84
2023/01/27 11:31:38;;;;;;;7.65;6.95;;;;;;;3.67;97.15;102513.25;6147935;23;20072;-84
2023/01/27 11:34:38;;;;;;;7.72;6.93;;;;;;;3.78;98.78;102508.91;6147170;23;20001;-84
2023/01/27 11:37:29;;;;;;;7.30;6.57;;;;;;;3.85;98.46;102507.19;6131014;23;20017;-84
2023/01/27 11:39:54;;;;;;;7.20;6.50;;;;;;;3.88;97.16;102518.59;6146783;23;20526;-84
2023/01/27 11:42:20;;;;;;;7.68;6.88;;;;;;;3.86;96.58;102520.34;6146144;23;20029;-84
2023/01/27 11:44:49;;;;;;;7.18;6.47;;;;;;;3.82;97.03;102517.69;6120991;23;20041;-84
2023/01/27 11:47:24;;;;;;;8.02;7.22;;;;;;;3.74;97.60;102526.44;6147377;23;20001;-84
2023/01/27 11:49:52;;;;;;;8.23;7.00;;;;;;;3.69;97.09;102517.66;6146617;23;20005;-84
2023/01/27 11:52:21;;;;;;;7.88;7.18;;;;;;;3.63;98.45;102522.88;6146143;23;20009;-84
2023/01/27 11:54:56;;;;;;;7.93;7.22;;;;;;;3.56;98.16;102521.09;6153233;23;20057;-84